sensor_id;sensor_type;location;lat;lon;timestamp;temperature;humidity
7194;DHT22;3638;48.820;9.244;2022-11-30T00:01:08;6.60;99.90
7194;DHT22;3638;48.820;9.244;2022-11-30T00:03:36;6.50;99.90
7194;DHT22;3638;48.820;9.244;2022-11-30T00:06:03;6.50;99.90
7194;DHT22;3638;48.820;9.244;2022-11-30T00:08:31;6.60;99.90
7194;DHT22;3638;48.820;9.244;2022-11-30T00:10:58;6.60;99.90
7194;DHT22;3638;48.820;9.244;2022-11-30T00:13:25;6.60;99.90
7194;DHT22;3638;48.820;9.244;2022-11-30T00:15:53;6.60;99.90
7194;DHT22;3638;48.820;9.244;2022-11-30T00:18:20;6.60;99.90
7194;DHT22;3638;48.820;9.244;2022-11-30T00:20:47;6.60;99.90
7194;DHT22;3638;48.820;9.244;2022-11-30T00:23:13;6.60;99.90
7194;DHT22;3638;48.820;9.244;2022-11-30T00:25:40;6.60;99.90
7194;DHT22;3638;48.820;9.244;2022-11-30T00:28:07;6.60;99.90
7194;DHT22;3638;48.820;9.244;2022-11-30T00:30:34;6.50;99.90
7194;DHT22;3638;48.820;9.244;2022-11-30T00:33:02;6.50;99.90
7194;DHT22;3638;48.820;9.244;2022-11-30T00:35:29;6.50;99.90
7194;DHT22;3638;48.820;9.244;2022-11-30T00:37:56;6.50;99.90
7194;DHT22;3638;48.820;9.244;2022-11-30T00:40:23;6.50;99.90
7194;DHT22;3638;48.820;9.244;2022-11-30T00:42:50;6.40;99.90
7194;DHT22;3638;48.820;9.244;2022-11-30T00:45:17;6.40;99.90
7194;DHT22;3638;48.820;9.244;2022-11-30T00:47:43;6.50;99.90
7194;DHT22;3638;48.820;9.244;2022-11-30T00:50:12;6.40;99.90
7194;DHT22;3638;48.820;9.244;2022-11-30T00:52:39;6.50;99.90
7194;DHT22;3638;48.820;9.244;2022-11-30T00:55:07;6.40;99.90
7194;DHT22;3638;48.820;9.244;2022-11-30T00:57:34;6.40;99.90
7194;DHT22;3638;48.820;9.244;2022-11-30T01:00:01;6.40;99.90
7194;DHT22;3638;48.820;9.244;2022-11-30T01:02:29;6.40;99.90
7194;DHT22;3638;48.820;9.244;2022-11-30T01:04:56;6.40;99.90
7194;DHT22;3638;48.820;9.244;2022-11-30T01:07:24;6.40;99.90
7194;DHT22;3638;48.820;9.244;2022-11-30T01:09:51;6.40;99.90
7194;DHT22;3638;48.820;9.244;2022-11-30T01:12:18;6.50;99.90
7194;DHT22;3638;48.820;9.244;2022-11-30T01:14:45;9.10;99.90
7194;DHT22;3638;48.820;9.244;2022-11-30T01:17:11;6.50;99.90
7194;DHT22;3638;48.820;9.244;2022-11-30T01:19:38;6.50;99.90
7194;DHT22;3638;48.820;9.244;2022-11-30T01:22:05;6.50;99.90
7194;DHT22;3638;48.820;9.244;2022-11-30T01:24:33;6.50;99.90
7194;DHT22;3638;48.820;9.244;2022-11-30T01:27:00;6.60;99.90
7194;DHT22;3638;48.820;9.244;2022-11-30T01:29:27;6.50;99.90
7194;DHT22;3638;48.820;9.244;2022-11-30T01:31:54;6.50;99.90
7194;DHT22;3638;48.820;9.244;2022-11-30T01:34:21;6.40;99.90
7194;DHT22;3638;48.820;9.244;2022-11-30T01:36:48;6.40;99.90
7194;DHT22;3638;48.820;9.244;2022-11-30T01:39:15;6.50;99.90
7194;DHT22;3638;48.820;9.244;2022-11-30T01:41:43;6.40;99.90
7194;DHT22;3638;48.820;9.244;2022-11-30T01:44:47;6.40;99.90
7194;DHT22;3638;48.820;9.244;2022-11-30T01:47:17;6.40;99.90
7194;DHT22;3638;48.820;9.244;2022-11-30T01:49:48;6.50;99.90
7194;DHT22;3638;48.820;9.244;2022-11-30T01:52:20;6.50;99.90
7194;DHT22;3638;48.820;9.244;2022-11-30T01:54:51;6.50;99.90
7194;DHT22;3638;48.820;9.244;2022-11-30T01:57:25;6.40;99.90
7194;DHT22;3638;48.820;9.244;2022-11-30T01:59:59;6.40;99.90
7194;DHT22;3638;48.820;9.244;2022-11-30T02:02:32;6.40;99.90
7194;DHT22;3638;48.820;9.244;2022-11-30T02:05:05;6.40;99.90
7194;DHT22;3638;48.820;9.244;2022-11-30T02:07:33;6.40;99.90
7194;DHT22;3638;48.820;9.244;2022-11-30T02:10:00;6.40;99.90
7194;DHT22;3638;48.820;9.244;2022-11-30T02:12:36;6.40;99.90
7194;DHT22;3638;48.820;9.244;2022-11-30T02:15:10;6.30;99.90
7194;DHT22;3638;48.820;9.244;2022-11-30T02:17:46;6.30;99.90
7194;DHT22;3638;48.820;9.244;2022-11-30T02:20:34;6.30;99.90
7194;DHT22;3638;48.820;9.244;2022-11-30T02:23:26;6.30;99.90
7194;DHT22;3638;48.820;9.244;2022-11-30T02:26:12;6.30;99.90
7194;DHT22;3638;48.820;9.244;2022-11-30T02:29:12;6.40;99.90
7194;DHT22;3638;48.820;9.244;2022-11-30T02:31:49;6.40;99.90
7194;DHT22;3638;48.820;9.244;2022-11-30T02:34:22;6.40;99.90
7194;DHT22;3638;48.820;9.244;2022-11-30T02:36:51;6.40;99.90
7194;DHT22;3638;48.820;9.244;2022-11-30T02:39:20;6.40;99.90
7194;DHT22;3638;48.820;9.244;2022-11-30T02:41:47;6.40;99.90
7194;DHT22;3638;48.820;9.244;2022-11-30T02:44:16;6.40;99.90
7194;DHT22;3638;48.820;9.244;2022-11-30T02:47:06;6.40;99.90
7194;DHT22;3638;48.820;9.244;2022-11-30T02:49:45;6.40;99.90
7194;DHT22;3638;48.820;9.244;2022-11-30T02:52:16;6.40;99.90
7194;DHT22;3638;48.820;9.244;2022-11-30T02:54:44;6.40;99.90
7194;DHT22;3638;48.820;9.244;2022-11-30T02:57:11;6.40;99.90
7194;DHT22;3638;48.820;9.244;2022-11-30T02:59:39;6.50;99.90
7194;DHT22;3638;48.820;9.244;2022-11-30T03:02:06;6.50;99.90
7194;DHT22;3638;48.820;9.244;2022-11-30T03:04:33;6.40;99.90
7194;DHT22;3638;48.820;9.244;2022-11-30T03:07:00;6.50;99.90
7194;DHT22;3638;48.820;9.244;2022-11-30T03:09:27;6.40;99.90
7194;DHT22;3638;48.820;9.244;2022-11-30T03:11:54;6.40;99.90
7194;DHT22;3638;48.820;9.244;2022-11-30T03:14:21;6.30;99.90
7194;DHT22;3638;48.820;9.244;2022-11-30T03:16:49;6.30;99.90
7194;DHT22;3638;48.820;9.244;2022-11-30T03:19:16;6.30;99.90
7194;DHT22;3638;48.820;9.244;2022-11-30T03:21:43;6.30;99.90
7194;DHT22;3638;48.820;9.244;2022-11-30T03:24:10;6.40;99.90
7194;DHT22;3638;48.820;9.244;2022-11-30T03:26:37;6.40;99.90
7194;DHT22;3638;48.820;9.244;2022-11-30T03:29:04;6.30;99.90
7194;DHT22;3638;48.820;9.244;2022-11-30T03:31:31;6.30;99.90
7194;DHT22;3638;48.820;9.244;2022-11-30T03:33:59;6.20;99.90
7194;DHT22;3638;48.820;9.244;2022-11-30T03:36:26;6.30;99.90
7194;DHT22;3638;48.820;9.244;2022-11-30T03:38:53;6.40;99.90
7194;DHT22;3638;48.820;9.244;2022-11-30T03:41:20;6.40;99.90
7194;DHT22;3638;48.820;9.244;2022-11-30T03:43:47;6.40;99.90
7194;DHT22;3638;48.820;9.244;2022-11-30T03:46:14;6.30;99.90
7194;DHT22;3638;48.820;9.244;2022-11-30T03:48:41;6.30;99.90
7194;DHT22;3638;48.820;9.244;2022-11-30T03:51:10;6.30;99.90
7194;DHT22;3638;48.820;9.244;2022-11-30T03:53:38;6.40;99.90
7194;DHT22;3638;48.820;9.244;2022-11-30T03:56:07;6.40;99.90
7194;DHT22;3638;48.820;9.244;2022-11-30T03:58:35;6.40;99.90
7194;DHT22;3638;48.820;9.244;2022-11-30T04:01:03;6.40;99.90
7194;DHT22;3638;48.820;9.244;2022-11-30T04:03:32;6.40;99.90
7194;DHT22;3638;48.820;9.244;2022-11-30T04:06:00;6.40;99.90
7194;DHT22;3638;48.820;9.244;2022-11-30T04:08:30;6.40;99.90
7194;DHT22;3638;48.820;9.244;2022-11-30T04:10:59;6.40;99.90
7194;DHT22;3638;48.820;9.244;2022-11-30T04:13:27;6.40;99.90
7194;DHT22;3638;48.820;9.244;2022-11-30T04:15:55;6.40;99.90
7194;DHT22;3638;48.820;9.244;2022-11-30T04:18:23;6.30;99.90
7194;DHT22;3638;48.820;9.244;2022-11-30T04:20:52;6.30;99.90
7194;DHT22;3638;48.820;9.244;2022-11-30T04:23:20;6.30;99.90
7194;DHT22;3638;48.820;9.244;2022-11-30T04:25:49;6.40;99.90
7194;DHT22;3638;48.820;9.244;2022-11-30T04:28:17;6.30;99.90
7194;DHT22;3638;48.820;9.244;2022-11-30T04:30:45;6.30;99.90
7194;DHT22;3638;48.820;9.244;2022-11-30T04:33:13;6.30;99.90
7194;DHT22;3638;48.820;9.244;2022-11-30T04:35:42;6.30;99.90
7194;DHT22;3638;48.820;9.244;2022-11-30T04:38:10;6.30;99.90
7194;DHT22;3638;48.820;9.244;2022-11-30T04:40:38;6.30;99.90
7194;DHT22;3638;48.820;9.244;2022-11-30T04:43:07;6.30;99.90
7194;DHT22;3638;48.820;9.244;2022-11-30T04:45:34;6.20;99.90
7194;DHT22;3638;48.820;9.244;2022-11-30T04:48:03;6.20;99.90
7194;DHT22;3638;48.820;9.244;2022-11-30T04:50:31;6.20;99.90
7194;DHT22;3638;48.820;9.244;2022-11-30T04:52:59;6.20;99.90
7194;DHT22;3638;48.820;9.244;2022-11-30T04:55:26;6.20;99.90
7194;DHT22;3638;48.820;9.244;2022-11-30T04:57:53;6.30;99.90
7194;DHT22;3638;48.820;9.244;2022-11-30T05:00:22;6.30;99.90
7194;DHT22;3638;48.820;9.244;2022-11-30T05:02:48;6.30;99.90
7194;DHT22;3638;48.820;9.244;2022-11-30T05:05:16;6.20;99.90
7194;DHT22;3638;48.820;9.244;2022-11-30T05:07:43;6.30;99.90
7194;DHT22;3638;48.820;9.244;2022-11-30T05:10:10;6.30;99.90
7194;DHT22;3638;48.820;9.244;2022-11-30T05:12:37;6.30;99.90
7194;DHT22;3638;48.820;9.244;2022-11-30T05:15:05;5.50;99.90
7194;DHT22;3638;48.820;9.244;2022-11-30T05:17:34;6.30;99.90
7194;DHT22;3638;48.820;9.244;2022-11-30T05:20:01;6.30;99.90
7194;DHT22;3638;48.820;9.244;2022-11-30T05:22:28;6.20;99.90
7194;DHT22;3638;48.820;9.244;2022-11-30T05:24:54;6.20;99.90
7194;DHT22;3638;48.820;9.244;2022-11-30T05:27:21;6.20;99.90
7194;DHT22;3638;48.820;9.244;2022-11-30T05:29:48;6.20;99.90
7194;DHT22;3638;48.820;9.244;2022-11-30T05:32:15;6.20;99.90
7194;DHT22;3638;48.820;9.244;2022-11-30T05:34:43;6.20;99.90
7194;DHT22;3638;48.820;9.244;2022-11-30T05:37:10;6.30;99.90
7194;DHT22;3638;48.820;9.244;2022-11-30T05:39:37;6.40;99.90
7194;DHT22;3638;48.820;9.244;2022-11-30T05:42:04;6.40;99.90
7194;DHT22;3638;48.820;9.244;2022-11-30T05:44:31;6.30;99.90
7194;DHT22;3638;48.820;9.244;2022-11-30T05:46:58;6.20;99.90
7194;DHT22;3638;48.820;9.244;2022-11-30T05:49:25;6.30;99.90
7194;DHT22;3638;48.820;9.244;2022-11-30T05:51:53;6.30;99.90
7194;DHT22;3638;48.820;9.244;2022-11-30T05:54:20;6.20;99.90
7194;DHT22;3638;48.820;9.244;2022-11-30T05:56:47;7.90;99.90
7194;DHT22;3638;48.820;9.244;2022-11-30T05:59:13;6.20;99.90
7194;DHT22;3638;48.820;9.244;2022-11-30T06:01:40;6.20;99.90
7194;DHT22;3638;48.820;9.244;2022-11-30T06:04:07;6.20;99.90
7194;DHT22;3638;48.820;9.244;2022-11-30T06:06:34;6.20;99.90
7194;DHT22;3638;48.820;9.244;2022-11-30T06:09:02;6.20;99.90
7194;DHT22;3638;48.820;9.244;2022-11-30T06:11:29;6.30;99.90
7194;DHT22;3638;48.820;9.244;2022-11-30T06:13:56;6.30;99.90
7194;DHT22;3638;48.820;9.244;2022-11-30T06:16:23;6.30;99.90
7194;DHT22;3638;48.820;9.244;2022-11-30T06:18:50;6.40;99.90
7194;DHT22;3638;48.820;9.244;2022-11-30T06:21:17;6.30;99.90
7194;DHT22;3638;48.820;9.244;2022-11-30T06:23:44;6.40;99.90
7194;DHT22;3638;48.820;9.244;2022-11-30T06:26:12;6.30;99.90
7194;DHT22;3638;48.820;9.244;2022-11-30T06:28:40;6.40;99.90
7194;DHT22;3638;48.820;9.244;2022-11-30T06:31:07;6.40;99.90
7194;DHT22;3638;48.820;9.244;2022-11-30T06:33:34;6.40;99.90
7194;DHT22;3638;48.820;9.244;2022-11-30T06:36:01;6.40;99.90
7194;DHT22;3638;48.820;9.244;2022-11-30T06:38:29;6.40;99.90
7194;DHT22;3638;48.820;9.244;2022-11-30T06:41:02;6.40;99.90
7194;DHT22;3638;48.820;9.244;2022-11-30T06:43:33;6.40;99.90
7194;DHT22;3638;48.820;9.244;2022-11-30T06:46:02;6.50;99.90
7194;DHT22;3638;48.820;9.244;2022-11-30T06:48:29;6.40;99.90
7194;DHT22;3638;48.820;9.244;2022-11-30T06:50:57;6.40;99.90
7194;DHT22;3638;48.820;9.244;2022-11-30T06:53:24;6.40;99.90
7194;DHT22;3638;48.820;9.244;2022-11-30T06:55:52;6.40;99.90
7194;DHT22;3638;48.820;9.244;2022-11-30T06:58:19;6.40;99.90
7194;DHT22;3638;48.820;9.244;2022-11-30T07:00:47;6.50;99.90
7194;DHT22;3638;48.820;9.244;2022-11-30T07:03:14;6.50;99.90
7194;DHT22;3638;48.820;9.244;2022-11-30T07:05:42;6.50;99.90
7194;DHT22;3638;48.820;9.244;2022-11-30T07:08:10;6.60;99.90
7194;DHT22;3638;48.820;9.244;2022-11-30T07:10:41;6.50;99.90
7194;DHT22;3638;48.820;9.244;2022-11-30T07:13:13;6.40;99.90
7194;DHT22;3638;48.820;9.244;2022-11-30T07:15:41;6.50;99.90
7194;DHT22;3638;48.820;9.244;2022-11-30T07:18:10;6.50;99.90
7194;DHT22;3638;48.820;9.244;2022-11-30T07:20:38;6.60;99.90
7194;DHT22;3638;48.820;9.244;2022-11-30T07:23:05;6.60;99.90
7194;DHT22;3638;48.820;9.244;2022-11-30T07:25:46;6.50;99.90
7194;DHT22;3638;48.820;9.244;2022-11-30T07:28:32;6.60;99.90
7194;DHT22;3638;48.820;9.244;2022-11-30T07:31:00;6.70;99.90
7194;DHT22;3638;48.820;9.244;2022-11-30T07:33:29;6.60;99.90
7194;DHT22;3638;48.820;9.244;2022-11-30T07:35:57;6.60;99.90
7194;DHT22;3638;48.820;9.244;2022-11-30T07:38:23;6.60;99.90
7194;DHT22;3638;48.820;9.244;2022-11-30T07:40:51;6.70;99.90
7194;DHT22;3638;48.820;9.244;2022-11-30T07:43:18;6.80;99.90
7194;DHT22;3638;48.820;9.244;2022-11-30T07:45:50;6.70;99.90
7194;DHT22;3638;48.820;9.244;2022-11-30T07:48:17;6.70;99.90
7194;DHT22;3638;48.820;9.244;2022-11-30T07:50:46;6.70;99.90
7194;DHT22;3638;48.820;9.244;2022-11-30T07:53:14;6.80;99.90
7194;DHT22;3638;48.820;9.244;2022-11-30T07:55:41;6.90;99.90
7194;DHT22;3638;48.820;9.244;2022-11-30T07:58:08;7.00;99.90
7194;DHT22;3638;48.820;9.244;2022-11-30T08:00:36;7.00;99.90
7194;DHT22;3638;48.820;9.244;2022-11-30T08:03:04;7.20;99.90
7194;DHT22;3638;48.820;9.244;2022-11-30T08:05:31;7.20;99.90
7194;DHT22;3638;48.820;9.244;2022-11-30T08:07:59;7.30;99.90
7194;DHT22;3638;48.820;9.244;2022-11-30T08:10:26;7.40;99.90
7194;DHT22;3638;48.820;9.244;2022-11-30T08:12:53;7.60;99.90
7194;DHT22;3638;48.820;9.244;2022-11-30T08:15:20;7.60;99.90
7194;DHT22;3638;48.820;9.244;2022-11-30T08:17:47;7.60;99.90
7194;DHT22;3638;48.820;9.244;2022-11-30T08:20:19;7.60;99.90
7194;DHT22;3638;48.820;9.244;2022-11-30T08:22:47;7.60;99.90
7194;DHT22;3638;48.820;9.244;2022-11-30T08:25:17;7.50;99.90
7194;DHT22;3638;48.820;9.244;2022-11-30T08:27:44;7.40;99.90
7194;DHT22;3638;48.820;9.244;2022-11-30T08:30:11;7.50;99.90
7194;DHT22;3638;48.820;9.244;2022-11-30T08:32:38;7.70;99.90
7194;DHT22;3638;48.820;9.244;2022-11-30T08:35:06;7.60;99.90
7194;DHT22;3638;48.820;9.244;2022-11-30T08:37:35;7.60;99.90
7194;DHT22;3638;48.820;9.244;2022-11-30T08:40:04;7.60;99.90
7194;DHT22;3638;48.820;9.244;2022-11-30T08:42:33;7.60;99.90
7194;DHT22;3638;48.820;9.244;2022-11-30T08:45:00;7.70;99.90
7194;DHT22;3638;48.820;9.244;2022-11-30T08:47:27;7.70;99.90
7194;DHT22;3638;48.820;9.244;2022-11-30T08:49:55;7.70;99.90
7194;DHT22;3638;48.820;9.244;2022-11-30T08:52:23;7.80;99.90
7194;DHT22;3638;48.820;9.244;2022-11-30T08:54:50;7.90;99.90
7194;DHT22;3638;48.820;9.244;2022-11-30T08:57:18;8.00;99.90
7194;DHT22;3638;48.820;9.244;2022-11-30T08:59:48;8.10;99.90
7194;DHT22;3638;48.820;9.244;2022-11-30T09:02:16;8.70;99.90
7194;DHT22;3638;48.820;9.244;2022-11-30T09:04:44;8.70;99.90
7194;DHT22;3638;48.820;9.244;2022-11-30T09:07:13;8.60;99.90
7194;DHT22;3638;48.820;9.244;2022-11-30T09:09:40;8.50;99.90
7194;DHT22;3638;48.820;9.244;2022-11-30T09:12:07;8.40;99.90
7194;DHT22;3638;48.820;9.244;2022-11-30T09:14:34;8.20;99.90
7194;DHT22;3638;48.820;9.244;2022-11-30T09:17:02;8.20;99.90
7194;DHT22;3638;48.820;9.244;2022-11-30T09:19:29;8.20;99.90
7194;DHT22;3638;48.820;9.244;2022-11-30T09:21:56;8.20;99.90
7194;DHT22;3638;48.820;9.244;2022-11-30T09:24:23;8.20;99.90
7194;DHT22;3638;48.820;9.244;2022-11-30T09:26:49;8.10;99.90
7194;DHT22;3638;48.820;9.244;2022-11-30T09:29:17;8.00;99.90
7194;DHT22;3638;48.820;9.244;2022-11-30T09:31:43;7.90;99.90
7194;DHT22;3638;48.820;9.244;2022-11-30T09:34:12;8.00;99.90
7194;DHT22;3638;48.820;9.244;2022-11-30T09:36:39;7.90;99.90
7194;DHT22;3638;48.820;9.244;2022-11-30T09:39:08;7.90;99.90
7194;DHT22;3638;48.820;9.244;2022-11-30T09:44:37;7.80;99.90
7194;DHT22;3638;48.820;9.244;2022-11-30T09:47:18;7.70;99.90
7194;DHT22;3638;48.820;9.244;2022-11-30T09:49:53;7.60;99.90
7194;DHT22;3638;48.820;9.244;2022-11-30T09:52:25;7.60;99.90
7194;DHT22;3638;48.820;9.244;2022-11-30T09:54:57;7.30;99.90
7194;DHT22;3638;48.820;9.244;2022-11-30T09:57:29;7.30;99.90
7194;DHT22;3638;48.820;9.244;2022-11-30T10:00:00;7.40;99.90
7194;DHT22;3638;48.820;9.244;2022-11-30T10:02:31;7.40;99.90
7194;DHT22;3638;48.820;9.244;2022-11-30T10:05:11;7.50;99.90
7194;DHT22;3638;48.820;9.244;2022-11-30T10:07:48;7.50;99.90
7194;DHT22;3638;48.820;9.244;2022-11-30T10:10:29;7.70;99.90
7194;DHT22;3638;48.820;9.244;2022-11-30T10:13:07;7.70;99.90
7194;DHT22;3638;48.820;9.244;2022-11-30T10:15:55;7.60;99.90
7194;DHT22;3638;48.820;9.244;2022-11-30T10:18:36;7.70;99.90
7194;DHT22;3638;48.820;9.244;2022-11-30T10:21:19;7.70;99.90
7194;DHT22;3638;48.820;9.244;2022-11-30T10:24:04;7.60;99.90
7194;DHT22;3638;48.820;9.244;2022-11-30T10:26:41;7.70;99.90
7194;DHT22;3638;48.820;9.244;2022-11-30T10:29:16;8.40;99.90
7194;DHT22;3638;48.820;9.244;2022-11-30T10:31:46;8.50;99.90
7194;DHT22;3638;48.820;9.244;2022-11-30T10:34:19;8.50;99.90
7194;DHT22;3638;48.820;9.244;2022-11-30T10:36:52;8.60;99.90
7194;DHT22;3638;48.820;9.244;2022-11-30T10:39:26;8.40;99.90
7194;DHT22;3638;48.820;9.244;2022-11-30T10:42:01;8.30;99.90
7194;DHT22;3638;48.820;9.244;2022-11-30T10:44:33;8.10;99.90
7194;DHT22;3638;48.820;9.244;2022-11-30T10:47:10;8.20;99.90
7194;DHT22;3638;48.820;9.244;2022-11-30T10:49:45;8.30;99.90
7194;DHT22;3638;48.820;9.244;2022-11-30T10:52:19;8.50;99.90
7194;DHT22;3638;48.820;9.244;2022-11-30T10:54:49;8.50;99.90
7194;DHT22;3638;48.820;9.244;2022-11-30T10:57:19;8.60;99.90
7194;DHT22;3638;48.820;9.244;2022-11-30T10:59:49;8.50;99.90
7194;DHT22;3638;48.820;9.244;2022-11-30T11:02:38;8.60;99.90
7194;DHT22;3638;48.820;9.244;2022-11-30T11:05:21;8.20;99.90
7194;DHT22;3638;48.820;9.244;2022-11-30T11:07:54;8.20;99.90
7194;DHT22;3638;48.820;9.244;2022-11-30T11:10:28;8.10;99.90
7194;DHT22;3638;48.820;9.244;2022-11-30T11:12:57;8.20;99.90
7194;DHT22;3638;48.820;9.244;2022-11-30T11:15:26;8.40;99.90
7194;DHT22;3638;48.820;9.244;2022-11-30T11:18:18;8.40;99.90
7194;DHT22;3638;48.820;9.244;2022-11-30T11:21:00;8.50;99.90
7194;DHT22;3638;48.820;9.244;2022-11-30T11:23:35;8.50;99.90
7194;DHT22;3638;48.820;9.244;2022-11-30T11:26:04;8.20;99.90
7194;DHT22;3638;48.820;9.244;2022-11-30T11:28:32;8.10;99.90
7194;DHT22;3638;48.820;9.244;2022-11-30T11:31:15;8.20;99.90
7194;DHT22;3638;48.820;9.244;2022-11-30T11:33:49;8.10;99.90
7194;DHT22;3638;48.820;9.244;2022-11-30T11:36:24;8.20;99.90
7194;DHT22;3638;48.820;9.244;2022-11-30T11:38:54;8.20;99.90
7194;DHT22;3638;48.820;9.244;2022-11-30T11:41:25;8.30;99.90
7194;DHT22;3638;48.820;9.244;2022-11-30T11:44:00;8.20;99.90
7194;DHT22;3638;48.820;9.244;2022-11-30T11:46:29;8.40;99.90
7194;DHT22;3638;48.820;9.244;2022-11-30T11:49:00;8.30;99.90
7194;DHT22;3638;48.820;9.244;2022-11-30T11:51:29;8.20;99.90
7194;DHT22;3638;48.820;9.244;2022-11-30T11:54:01;8.20;99.90
7194;DHT22;3638;48.820;9.244;2022-11-30T11:56:34;8.40;99.90
7194;DHT22;3638;48.820;9.244;2022-11-30T11:59:06;8.30;99.90
7194;DHT22;3638;48.820;9.244;2022-11-30T12:01:45;8.30;99.90
7194;DHT22;3638;48.820;9.244;2022-11-30T12:07:19;8.70;99.90
7194;DHT22;3638;48.820;9.244;2022-11-30T12:10:02;8.40;99.90
7194;DHT22;3638;48.820;9.244;2022-11-30T12:12:36;8.40;99.90
7194;DHT22;3638;48.820;9.244;2022-11-30T12:15:08;8.20;99.90
7194;DHT22;3638;48.820;9.244;2022-11-30T12:17:45;8.20;99.90
7194;DHT22;3638;48.820;9.244;2022-11-30T12:20:24;8.20;99.90
7194;DHT22;3638;48.820;9.244;2022-11-30T12:23:06;8.20;99.90
7194;DHT22;3638;48.820;9.244;2022-11-30T12:25:46;8.00;99.90
7194;DHT22;3638;48.820;9.244;2022-11-30T12:28:21;8.00;99.90
7194;DHT22;3638;48.820;9.244;2022-11-30T12:31:03;7.80;99.90
7194;DHT22;3638;48.820;9.244;2022-11-30T12:33:47;7.80;99.90
7194;DHT22;3638;48.820;9.244;2022-11-30T12:36:26;7.80;99.90
7194;DHT22;3638;48.820;9.244;2022-11-30T12:39:07;7.70;99.90
7194;DHT22;3638;48.820;9.244;2022-11-30T12:41:45;7.70;99.90
7194;DHT22;3638;48.820;9.244;2022-11-30T12:44:28;7.70;99.90
7194;DHT22;3638;48.820;9.244;2022-11-30T12:47:11;7.90;99.90
7194;DHT22;3638;48.820;9.244;2022-11-30T12:49:54;8.30;99.90
7194;DHT22;3638;48.820;9.244;2022-11-30T12:52:36;8.30;99.90
7194;DHT22;3638;48.820;9.244;2022-11-30T12:55:19;8.00;99.90
7194;DHT22;3638;48.820;9.244;2022-11-30T12:57:59;8.00;99.90
7194;DHT22;3638;48.820;9.244;2022-11-30T13:00:34;7.90;99.90
7194;DHT22;3638;48.820;9.244;2022-11-30T13:03:29;7.90;99.90
7194;DHT22;3638;48.820;9.244;2022-11-30T13:06:09;7.40;99.90
7194;DHT22;3638;48.820;9.244;2022-11-30T13:08:49;7.40;99.90
7194;DHT22;3638;48.820;9.244;2022-11-30T13:11:21;7.50;99.90
7194;DHT22;3638;48.820;9.244;2022-11-30T13:13:55;7.50;99.90
7194;DHT22;3638;48.820;9.244;2022-11-30T13:16:24;7.50;99.90
7194;DHT22;3638;48.820;9.244;2022-11-30T13:18:55;7.60;99.90
7194;DHT22;3638;48.820;9.244;2022-11-30T13:21:28;7.80;99.90
7194;DHT22;3638;48.820;9.244;2022-11-30T13:24:02;8.00;99.90
7194;DHT22;3638;48.820;9.244;2022-11-30T13:26:37;8.10;99.90
7194;DHT22;3638;48.820;9.244;2022-11-30T13:32:13;7.80;99.90
7194;DHT22;3638;48.820;9.244;2022-11-30T13:34:41;7.60;99.90
7194;DHT22;3638;48.820;9.244;2022-11-30T13:37:11;7.60;99.90
7194;DHT22;3638;48.820;9.244;2022-11-30T13:39:46;7.60;99.90
7194;DHT22;3638;48.820;9.244;2022-11-30T13:42:29;7.70;99.90
7194;DHT22;3638;48.820;9.244;2022-11-30T13:45:23;8.00;99.90
7194;DHT22;3638;48.820;9.244;2022-11-30T13:47:54;8.00;99.90
7194;DHT22;3638;48.820;9.244;2022-11-30T13:50:25;7.90;99.90
7194;DHT22;3638;48.820;9.244;2022-11-30T13:53:20;7.70;99.90
7194;DHT22;3638;48.820;9.244;2022-11-30T13:55:54;7.90;99.90
7194;DHT22;3638;48.820;9.244;2022-11-30T13:58:23;8.00;99.90
7194;DHT22;3638;48.820;9.244;2022-11-30T14:01:18;7.90;99.90
7194;DHT22;3638;48.820;9.244;2022-11-30T14:07:01;7.80;99.90
7194;DHT22;3638;48.820;9.244;2022-11-30T14:12:59;7.60;99.90
7194;DHT22;3638;48.820;9.244;2022-11-30T14:15:51;7.40;99.90
7194;DHT22;3638;48.820;9.244;2022-11-30T14:18:30;7.50;99.90
7194;DHT22;3638;48.820;9.244;2022-11-30T14:21:16;7.50;99.90
7194;DHT22;3638;48.820;9.244;2022-11-30T14:23:56;7.50;99.90
7194;DHT22;3638;48.820;9.244;2022-11-30T14:26:28;7.40;99.90
7194;DHT22;3638;48.820;9.244;2022-11-30T14:29:02;7.60;99.90
7194;DHT22;3638;48.820;9.244;2022-11-30T14:31:33;7.60;99.90
7194;DHT22;3638;48.820;9.244;2022-11-30T14:34:10;7.70;99.90
7194;DHT22;3638;48.820;9.244;2022-11-30T14:36:44;7.70;99.90
7194;DHT22;3638;48.820;9.244;2022-11-30T14:39:24;7.70;99.90
7194;DHT22;3638;48.820;9.244;2022-11-30T14:41:54;7.70;99.90
7194;DHT22;3638;48.820;9.244;2022-11-30T14:44:21;7.60;99.90
7194;DHT22;3638;48.820;9.244;2022-11-30T14:46:48;7.50;99.90
7194;DHT22;3638;48.820;9.244;2022-11-30T14:49:18;7.60;99.90
7194;DHT22;3638;48.820;9.244;2022-11-30T14:51:48;7.60;99.90
7194;DHT22;3638;48.820;9.244;2022-11-30T14:54:37;7.60;99.90
7194;DHT22;3638;48.820;9.244;2022-11-30T14:57:17;7.60;99.90
7194;DHT22;3638;48.820;9.244;2022-11-30T14:59:49;7.50;99.90
7194;DHT22;3638;48.820;9.244;2022-11-30T15:02:21;7.50;99.90
7194;DHT22;3638;48.820;9.244;2022-11-30T15:04:53;7.40;99.90
7194;DHT22;3638;48.820;9.244;2022-11-30T15:07:21;7.40;99.90
7194;DHT22;3638;48.820;9.244;2022-11-30T15:09:50;7.40;99.90
7194;DHT22;3638;48.820;9.244;2022-11-30T15:12:23;7.60;99.90
7194;DHT22;3638;48.820;9.244;2022-11-30T15:15:16;7.70;99.90
7194;DHT22;3638;48.820;9.244;2022-11-30T15:17:54;7.70;99.90
7194;DHT22;3638;48.820;9.244;2022-11-30T15:20:30;7.50;99.90
7194;DHT22;3638;48.820;9.244;2022-11-30T15:23:02;7.40;99.90
7194;DHT22;3638;48.820;9.244;2022-11-30T15:25:37;7.50;99.90
7194;DHT22;3638;48.820;9.244;2022-11-30T15:28:06;7.40;99.90
7194;DHT22;3638;48.820;9.244;2022-11-30T15:30:36;7.50;99.90
7194;DHT22;3638;48.820;9.244;2022-11-30T15:33:05;7.50;99.90
7194;DHT22;3638;48.820;9.244;2022-11-30T15:35:33;6.60;99.90
7194;DHT22;3638;48.820;9.244;2022-11-30T15:38:06;7.60;99.90
7194;DHT22;3638;48.820;9.244;2022-11-30T15:40:34;7.40;99.90
7194;DHT22;3638;48.820;9.244;2022-11-30T15:43:01;7.40;99.90
7194;DHT22;3638;48.820;9.244;2022-11-30T15:45:31;7.20;99.90
7194;DHT22;3638;48.820;9.244;2022-11-30T15:48:00;7.30;99.90
7194;DHT22;3638;48.820;9.244;2022-11-30T15:50:37;7.20;99.90
7194;DHT22;3638;48.820;9.244;2022-11-30T15:53:24;7.10;99.90
7194;DHT22;3638;48.820;9.244;2022-11-30T15:55:54;7.20;99.90
7194;DHT22;3638;48.820;9.244;2022-11-30T15:58:30;7.20;99.90
7194;DHT22;3638;48.820;9.244;2022-11-30T16:01:05;7.10;99.90
7194;DHT22;3638;48.820;9.244;2022-11-30T16:03:35;7.10;99.90
7194;DHT22;3638;48.820;9.244;2022-11-30T16:06:31;7.10;99.90
7194;DHT22;3638;48.820;9.244;2022-11-30T16:09:03;7.20;99.90
7194;DHT22;3638;48.820;9.244;2022-11-30T16:11:34;7.30;99.90
7194;DHT22;3638;48.820;9.244;2022-11-30T16:14:01;7.20;99.90
7194;DHT22;3638;48.820;9.244;2022-11-30T16:16:30;7.30;99.90
7194;DHT22;3638;48.820;9.244;2022-11-30T16:21:25;7.20;99.90
7194;DHT22;3638;48.820;9.244;2022-11-30T16:23:53;7.30;99.90
7194;DHT22;3638;48.820;9.244;2022-11-30T16:26:20;7.20;99.90
7194;DHT22;3638;48.820;9.244;2022-11-30T16:28:47;7.20;99.90
7194;DHT22;3638;48.820;9.244;2022-11-30T16:31:17;7.20;99.90
7194;DHT22;3638;48.820;9.244;2022-11-30T16:33:45;7.20;99.90
7194;DHT22;3638;48.820;9.244;2022-11-30T16:36:15;7.10;99.90
7194;DHT22;3638;48.820;9.244;2022-11-30T16:38:45;7.30;99.90
7194;DHT22;3638;48.820;9.244;2022-11-30T16:41:17;7.10;99.90
7194;DHT22;3638;48.820;9.244;2022-11-30T16:43:46;7.20;99.90
7194;DHT22;3638;48.820;9.244;2022-11-30T16:46:15;7.30;99.90
7194;DHT22;3638;48.820;9.244;2022-11-30T16:48:43;7.20;99.90
7194;DHT22;3638;48.820;9.244;2022-11-30T16:51:16;7.10;99.90
7194;DHT22;3638;48.820;9.244;2022-11-30T16:53:44;7.70;99.90
7194;DHT22;3638;48.820;9.244;2022-11-30T16:56:12;7.10;99.90
7194;DHT22;3638;48.820;9.244;2022-11-30T16:58:41;7.20;99.90
7194;DHT22;3638;48.820;9.244;2022-11-30T17:01:13;7.20;99.90